sensor_id;sensor_type;location;lat;lon;timestamp;temperature;humidity
1948;DHT22;974;52.400;9.818;2022-11-20T00:00:09;-2.10;99.90
1948;DHT22;974;52.400;9.818;2022-11-20T00:02:35;-2.00;99.90
1948;DHT22;974;52.400;9.818;2022-11-20T00:05:00;-2.00;99.90
1948;DHT22;974;52.400;9.818;2022-11-20T00:07:26;-1.90;99.90
1948;DHT22;974;52.400;9.818;2022-11-20T00:09:51;-1.90;99.90
1948;DHT22;974;52.400;9.818;2022-11-20T00:12:17;-1.80;99.90
1948;DHT22;974;52.400;9.818;2022-11-20T00:14:42;-1.80;99.90
1948;DHT22;974;52.400;9.818;2022-11-20T00:17:08;-1.80;99.90
1948;DHT22;974;52.400;9.818;2022-11-20T00:19:34;-1.90;99.90
1948;DHT22;974;52.400;9.818;2022-11-20T00:21:59;-2.00;99.90
1948;DHT22;974;52.400;9.818;2022-11-20T00:24:25;-2.00;99.90
1948;DHT22;974;52.400;9.818;2022-11-20T00:26:50;-1.90;99.90
1948;DHT22;974;52.400;9.818;2022-11-20T00:29:16;-1.90;99.90
1948;DHT22;974;52.400;9.818;2022-11-20T00:31:41;-1.90;99.90
1948;DHT22;974;52.400;9.818;2022-11-20T00:34:07;-1.80;99.90
1948;DHT22;974;52.400;9.818;2022-11-20T00:36:34;-1.90;99.90
1948;DHT22;974;52.400;9.818;2022-11-20T00:38:59;-1.80;99.90
1948;DHT22;974;52.400;9.818;2022-11-20T00:41:26;-1.80;99.90
1948;DHT22;974;52.400;9.818;2022-11-20T00:43:53;-1.90;99.90
1948;DHT22;974;52.400;9.818;2022-11-20T00:46:21;-1.90;99.90
1948;DHT22;974;52.400;9.818;2022-11-20T00:48:47;-1.90;99.90
1948;DHT22;974;52.400;9.818;2022-11-20T00:51:15;-1.80;99.90
1948;DHT22;974;52.400;9.818;2022-11-20T00:53:42;-1.90;99.90
1948;DHT22;974;52.400;9.818;2022-11-20T00:56:11;-1.90;99.90
1948;DHT22;974;52.400;9.818;2022-11-20T00:58:40;-1.80;99.90
1948;DHT22;974;52.400;9.818;2022-11-20T01:01:11;-1.90;99.90
1948;DHT22;974;52.400;9.818;2022-11-20T01:03:40;-1.90;99.90
1948;DHT22;974;52.400;9.818;2022-11-20T01:06:12;-1.70;99.90
1948;DHT22;974;52.400;9.818;2022-11-20T01:08:38;-1.90;99.90
1948;DHT22;974;52.400;9.818;2022-11-20T01:11:09;-1.90;99.90
1948;DHT22;974;52.400;9.818;2022-11-20T01:13:35;-2.00;99.90
1948;DHT22;974;52.400;9.818;2022-11-20T01:16:12;-2.10;99.90
1948;DHT22;974;52.400;9.818;2022-11-20T01:18:41;-2.00;99.90
1948;DHT22;974;52.400;9.818;2022-11-20T01:21:12;-2.00;99.90
1948;DHT22;974;52.400;9.818;2022-11-20T01:23:39;-1.90;99.90
1948;DHT22;974;52.400;9.818;2022-11-20T01:26:08;-1.90;99.90
1948;DHT22;974;52.400;9.818;2022-11-20T01:28:34;-1.80;99.90
1948;DHT22;974;52.400;9.818;2022-11-20T01:31:00;-1.80;99.90
1948;DHT22;974;52.400;9.818;2022-11-20T01:33:27;-1.80;99.90
1948;DHT22;974;52.400;9.818;2022-11-20T01:35:53;-1.70;99.90
1948;DHT22;974;52.400;9.818;2022-11-20T01:38:19;-1.80;99.90
1948;DHT22;974;52.400;9.818;2022-11-20T01:40:54;-1.70;99.90
1948;DHT22;974;52.400;9.818;2022-11-20T01:43:21;-1.70;99.90
1948;DHT22;974;52.400;9.818;2022-11-20T01:48:24;-1.70;99.90
1948;DHT22;974;52.400;9.818;2022-11-20T01:50:52;-1.60;99.90
1948;DHT22;974;52.400;9.818;2022-11-20T01:53:22;-1.70;99.90
1948;DHT22;974;52.400;9.818;2022-11-20T01:55:51;-1.50;99.90
1948;DHT22;974;52.400;9.818;2022-11-20T01:58:22;-1.60;99.90
1948;DHT22;974;52.400;9.818;2022-11-20T02:00:51;-1.50;99.90
1948;DHT22;974;52.400;9.818;2022-11-20T02:03:18;-1.50;99.90
1948;DHT22;974;52.400;9.818;2022-11-20T02:06:14;-1.50;99.90
1948;DHT22;974;52.400;9.818;2022-11-20T02:08:42;-1.40;99.90
1948;DHT22;974;52.400;9.818;2022-11-20T02:11:08;-1.40;99.90
1948;DHT22;974;52.400;9.818;2022-11-20T02:13:34;-1.40;99.90
1948;DHT22;974;52.400;9.818;2022-11-20T02:16:33;-1.30;99.90
1948;DHT22;974;52.400;9.818;2022-11-20T02:19:01;-1.30;99.90
1948;DHT22;974;52.400;9.818;2022-11-20T02:21:36;-1.30;99.90
1948;DHT22;974;52.400;9.818;2022-11-20T02:27:02;-1.30;99.90
1948;DHT22;974;52.400;9.818;2022-11-20T02:29:32;-1.20;99.90
1948;DHT22;974;52.400;9.818;2022-11-20T02:32:00;-1.00;99.90
1948;DHT22;974;52.400;9.818;2022-11-20T02:34:27;-1.10;99.90
1948;DHT22;974;52.400;9.818;2022-11-20T02:36:53;-1.10;99.90
1948;DHT22;974;52.400;9.818;2022-11-20T02:39:19;-1.00;99.90
1948;DHT22;974;52.400;9.818;2022-11-20T02:41:46;-1.00;99.90
1948;DHT22;974;52.400;9.818;2022-11-20T02:44:11;-1.00;99.90
1948;DHT22;974;52.400;9.818;2022-11-20T02:46:37;-1.00;99.90
1948;DHT22;974;52.400;9.818;2022-11-20T02:49:03;-1.00;99.90
1948;DHT22;974;52.400;9.818;2022-11-20T02:51:30;-1.00;99.90
1948;DHT22;974;52.400;9.818;2022-11-20T02:53:56;-1.00;99.90
1948;DHT22;974;52.400;9.818;2022-11-20T02:56:21;-0.90;99.90
1948;DHT22;974;52.400;9.818;2022-11-20T02:58:47;-0.90;99.90
1948;DHT22;974;52.400;9.818;2022-11-20T03:01:13;-1.00;99.90
1948;DHT22;974;52.400;9.818;2022-11-20T03:03:38;-0.90;99.90
1948;DHT22;974;52.400;9.818;2022-11-20T03:06:04;-0.90;99.90
1948;DHT22;974;52.400;9.818;2022-11-20T03:08:30;-0.90;99.90
1948;DHT22;974;52.400;9.818;2022-11-20T03:10:55;-1.00;99.90
1948;DHT22;974;52.400;9.818;2022-11-20T03:13:21;-1.10;99.90
1948;DHT22;974;52.400;9.818;2022-11-20T03:15:46;-1.00;99.90
1948;DHT22;974;52.400;9.818;2022-11-20T03:18:12;-1.00;99.90
1948;DHT22;974;52.400;9.818;2022-11-20T03:20:39;-1.00;99.90
1948;DHT22;974;52.400;9.818;2022-11-20T03:23:05;-1.00;99.90
1948;DHT22;974;52.400;9.818;2022-11-20T03:25:30;-1.10;99.90
1948;DHT22;974;52.400;9.818;2022-11-20T03:27:56;-1.10;99.90
1948;DHT22;974;52.400;9.818;2022-11-20T03:30:21;-1.20;99.90
1948;DHT22;974;52.400;9.818;2022-11-20T03:32:47;-1.10;99.90
1948;DHT22;974;52.400;9.818;2022-11-20T03:35:13;-1.10;99.90
1948;DHT22;974;52.400;9.818;2022-11-20T03:37:38;-1.10;99.90
1948;DHT22;974;52.400;9.818;2022-11-20T03:40:04;-1.00;99.90
1948;DHT22;974;52.400;9.818;2022-11-20T03:42:30;-1.00;99.90
1948;DHT22;974;52.400;9.818;2022-11-20T03:45:15;-0.90;99.90
1948;DHT22;974;52.400;9.818;2022-11-20T03:47:42;-0.90;99.90
1948;DHT22;974;52.400;9.818;2022-11-20T03:50:08;-1.00;99.90
1948;DHT22;974;52.400;9.818;2022-11-20T03:52:34;-1.00;99.90
1948;DHT22;974;52.400;9.818;2022-11-20T03:55:00;-0.90;99.90
1948;DHT22;974;52.400;9.818;2022-11-20T03:57:25;-0.90;99.90
1948;DHT22;974;52.400;9.818;2022-11-20T03:59:51;-0.80;99.90
1948;DHT22;974;52.400;9.818;2022-11-20T04:02:16;-0.80;99.90
1948;DHT22;974;52.400;9.818;2022-11-20T04:04:42;-0.70;99.90
1948;DHT22;974;52.400;9.818;2022-11-20T04:07:08;-0.70;99.90
1948;DHT22;974;52.400;9.818;2022-11-20T04:09:33;-0.60;99.90
1948;DHT22;974;52.400;9.818;2022-11-20T04:11:59;-0.50;99.90
1948;DHT22;974;52.400;9.818;2022-11-20T04:14:24;-0.60;99.90
1948;DHT22;974;52.400;9.818;2022-11-20T04:16:50;-0.50;99.90
1948;DHT22;974;52.400;9.818;2022-11-20T04:19:16;-0.40;99.90
1948;DHT22;974;52.400;9.818;2022-11-20T04:21:43;-0.40;99.90
1948;DHT22;974;52.400;9.818;2022-11-20T04:24:09;-0.40;99.90
1948;DHT22;974;52.400;9.818;2022-11-20T04:26:35;-0.30;99.90
1948;DHT22;974;52.400;9.818;2022-11-20T04:29:01;-0.30;99.90
1948;DHT22;974;52.400;9.818;2022-11-20T04:34:02;-0.30;99.90
1948;DHT22;974;52.400;9.818;2022-11-20T04:36:28;-0.20;99.90
1948;DHT22;974;52.400;9.818;2022-11-20T04:38:59;-0.20;99.90
1948;DHT22;974;52.400;9.818;2022-11-20T04:41:27;-0.20;99.90
1948;DHT22;974;52.400;9.818;2022-11-20T04:43:55;-0.20;99.90
1948;DHT22;974;52.400;9.818;2022-11-20T04:46:25;-0.20;99.90
1948;DHT22;974;52.400;9.818;2022-11-20T04:48:51;-0.30;99.90
1948;DHT22;974;52.400;9.818;2022-11-20T04:51:17;-0.40;99.90
1948;DHT22;974;52.400;9.818;2022-11-20T04:53:42;-0.20;99.90
1948;DHT22;974;52.400;9.818;2022-11-20T04:56:09;-0.30;99.90
1948;DHT22;974;52.400;9.818;2022-11-20T04:58:36;-0.30;99.90
1948;DHT22;974;52.400;9.818;2022-11-20T05:01:17;-0.40;99.90
1948;DHT22;974;52.400;9.818;2022-11-20T05:03:44;-0.30;99.90
1948;DHT22;974;52.400;9.818;2022-11-20T05:06:11;-0.20;99.90
1948;DHT22;974;52.400;9.818;2022-11-20T05:08:37;-0.30;99.90
1948;DHT22;974;52.400;9.818;2022-11-20T05:11:11;-0.30;99.90
1948;DHT22;974;52.400;9.818;2022-11-20T05:13:37;-0.20;99.90
1948;DHT22;974;52.400;9.818;2022-11-20T05:16:04;-0.30;99.90
1948;DHT22;974;52.400;9.818;2022-11-20T05:18:29;-0.30;99.90
1948;DHT22;974;52.400;9.818;2022-11-20T05:20:56;-0.20;99.90
1948;DHT22;974;52.400;9.818;2022-11-20T05:23:21;-0.20;99.90
1948;DHT22;974;52.400;9.818;2022-11-20T05:25:47;-0.10;99.90
1948;DHT22;974;52.400;9.818;2022-11-20T05:28:12;0.00;99.90
1948;DHT22;974;52.400;9.818;2022-11-20T05:30:38;0.00;99.90
1948;DHT22;974;52.400;9.818;2022-11-20T05:33:03;0.00;99.90
1948;DHT22;974;52.400;9.818;2022-11-20T05:35:29;0.00;99.90
1948;DHT22;974;52.400;9.818;2022-11-20T05:37:54;0.10;99.90
1948;DHT22;974;52.400;9.818;2022-11-20T05:40:20;0.10;99.90
1948;DHT22;974;52.400;9.818;2022-11-20T05:42:45;0.10;99.90
1948;DHT22;974;52.400;9.818;2022-11-20T05:45:11;0.20;99.90
1948;DHT22;974;52.400;9.818;2022-11-20T05:47:37;0.20;99.90
1948;DHT22;974;52.400;9.818;2022-11-20T05:50:02;0.30;99.90
1948;DHT22;974;52.400;9.818;2022-11-20T05:52:28;0.30;99.90
1948;DHT22;974;52.400;9.818;2022-11-20T05:54:54;0.20;99.90
1948;DHT22;974;52.400;9.818;2022-11-20T05:57:20;0.30;99.90
1948;DHT22;974;52.400;9.818;2022-11-20T05:59:46;0.30;99.90
1948;DHT22;974;52.400;9.818;2022-11-20T06:02:11;0.30;99.90
1948;DHT22;974;52.400;9.818;2022-11-20T06:04:37;0.30;99.90
1948;DHT22;974;52.400;9.818;2022-11-20T06:07:02;0.30;99.90
1948;DHT22;974;52.400;9.818;2022-11-20T06:09:29;0.30;99.90
1948;DHT22;974;52.400;9.818;2022-11-20T06:11:55;0.30;99.90
1948;DHT22;974;52.400;9.818;2022-11-20T06:14:20;0.40;99.90
1948;DHT22;974;52.400;9.818;2022-11-20T06:16:46;0.30;99.90
1948;DHT22;974;52.400;9.818;2022-11-20T06:19:11;0.40;99.90
1948;DHT22;974;52.400;9.818;2022-11-20T06:21:37;0.40;99.90
1948;DHT22;974;52.400;9.818;2022-11-20T06:24:02;0.30;99.90
1948;DHT22;974;52.400;9.818;2022-11-20T06:26:29;0.30;99.90
1948;DHT22;974;52.400;9.818;2022-11-20T06:28:55;0.30;99.90
1948;DHT22;974;52.400;9.818;2022-11-20T06:31:23;0.30;99.90
1948;DHT22;974;52.400;9.818;2022-11-20T06:33:49;0.30;99.90
1948;DHT22;974;52.400;9.818;2022-11-20T06:36:16;0.30;99.90
1948;DHT22;974;52.400;9.818;2022-11-20T06:38:43;0.40;99.90
1948;DHT22;974;52.400;9.818;2022-11-20T06:41:13;0.40;99.90
1948;DHT22;974;52.400;9.818;2022-11-20T06:43:39;0.40;99.90
1948;DHT22;974;52.400;9.818;2022-11-20T06:46:05;0.40;99.90
1948;DHT22;974;52.400;9.818;2022-11-20T06:48:31;0.50;99.90
1948;DHT22;974;52.400;9.818;2022-11-20T06:50:57;0.40;99.90
1948;DHT22;974;52.400;9.818;2022-11-20T06:53:23;0.40;99.90
1948;DHT22;974;52.400;9.818;2022-11-20T06:55:50;0.40;99.90
1948;DHT22;974;52.400;9.818;2022-11-20T06:58:16;0.40;99.90
1948;DHT22;974;52.400;9.818;2022-11-20T07:00:42;0.30;99.90
1948;DHT22;974;52.400;9.818;2022-11-20T07:03:09;0.30;99.90
1948;DHT22;974;52.400;9.818;2022-11-20T07:05:36;0.40;99.90
1948;DHT22;974;52.400;9.818;2022-11-20T07:08:03;0.40;99.90
1948;DHT22;974;52.400;9.818;2022-11-20T07:10:28;0.40;99.90
1948;DHT22;974;52.400;9.818;2022-11-20T07:12:54;0.40;99.90
1948;DHT22;974;52.400;9.818;2022-11-20T07:15:21;0.50;99.90
1948;DHT22;974;52.400;9.818;2022-11-20T07:17:47;0.50;99.90
1948;DHT22;974;52.400;9.818;2022-11-20T07:20:13;0.50;99.90
1948;DHT22;974;52.400;9.818;2022-11-20T07:22:39;0.50;99.90
1948;DHT22;974;52.400;9.818;2022-11-20T07:25:05;0.40;99.90
1948;DHT22;974;52.400;9.818;2022-11-20T07:27:31;0.40;99.90
1948;DHT22;974;52.400;9.818;2022-11-20T07:29:57;0.40;99.90
1948;DHT22;974;52.400;9.818;2022-11-20T07:32:23;0.50;99.90
1948;DHT22;974;52.400;9.818;2022-11-20T07:34:49;0.40;99.90
1948;DHT22;974;52.400;9.818;2022-11-20T07:37:15;0.40;99.90
1948;DHT22;974;52.400;9.818;2022-11-20T07:39:41;0.50;99.90
1948;DHT22;974;52.400;9.818;2022-11-20T07:42:07;0.50;99.90
1948;DHT22;974;52.400;9.818;2022-11-20T07:44:32;0.40;99.90
1948;DHT22;974;52.400;9.818;2022-11-20T07:46:58;0.40;99.90
1948;DHT22;974;52.400;9.818;2022-11-20T07:49:24;0.40;99.90
1948;DHT22;974;52.400;9.818;2022-11-20T07:51:52;0.50;99.90
1948;DHT22;974;52.400;9.818;2022-11-20T07:54:19;0.30;99.90
1948;DHT22;974;52.400;9.818;2022-11-20T07:56:46;0.30;99.90
1948;DHT22;974;52.400;9.818;2022-11-20T07:59:11;0.40;99.90
1948;DHT22;974;52.400;9.818;2022-11-20T08:01:40;0.40;99.90
1948;DHT22;974;52.400;9.818;2022-11-20T08:04:06;0.40;99.90
1948;DHT22;974;52.400;9.818;2022-11-20T08:06:31;0.50;99.90
1948;DHT22;974;52.400;9.818;2022-11-20T08:08:57;0.50;99.90
1948;DHT22;974;52.400;9.818;2022-11-20T08:11:23;0.50;99.90
1948;DHT22;974;52.400;9.818;2022-11-20T08:14:07;0.60;99.90
1948;DHT22;974;52.400;9.818;2022-11-20T08:16:44;0.60;99.90
1948;DHT22;974;52.400;9.818;2022-11-20T08:19:11;0.70;99.90
1948;DHT22;974;52.400;9.818;2022-11-20T08:21:36;0.70;99.90
1948;DHT22;974;52.400;9.818;2022-11-20T08:24:02;0.70;99.90
1948;DHT22;974;52.400;9.818;2022-11-20T08:26:28;0.70;99.90
1948;DHT22;974;52.400;9.818;2022-11-20T08:28:55;0.70;99.90
1948;DHT22;974;52.400;9.818;2022-11-20T08:31:22;0.70;99.90
1948;DHT22;974;52.400;9.818;2022-11-20T08:33:47;0.80;99.90
1948;DHT22;974;52.400;9.818;2022-11-20T08:36:14;0.80;99.90
1948;DHT22;974;52.400;9.818;2022-11-20T08:38:39;0.80;99.90
1948;DHT22;974;52.400;9.818;2022-11-20T08:41:05;0.80;99.90
1948;DHT22;974;52.400;9.818;2022-11-20T08:43:59;0.80;99.90
1948;DHT22;974;52.400;9.818;2022-11-20T08:46:26;0.80;99.90
1948;DHT22;974;52.400;9.818;2022-11-20T08:48:53;0.90;99.90
1948;DHT22;974;52.400;9.818;2022-11-20T08:51:19;1.00;99.90
1948;DHT22;974;52.400;9.818;2022-11-20T08:53:45;1.00;99.90
1948;DHT22;974;52.400;9.818;2022-11-20T08:56:11;1.00;99.90
1948;DHT22;974;52.400;9.818;2022-11-20T08:58:38;1.10;99.90
1948;DHT22;974;52.400;9.818;2022-11-20T09:01:04;1.00;99.90
1948;DHT22;974;52.400;9.818;2022-11-20T09:03:30;1.10;99.90
1948;DHT22;974;52.400;9.818;2022-11-20T09:06:06;1.10;99.90
1948;DHT22;974;52.400;9.818;2022-11-20T09:08:33;1.10;99.90
1948;DHT22;974;52.400;9.818;2022-11-20T09:10:58;1.20;99.90
1948;DHT22;974;52.400;9.818;2022-11-20T09:13:25;1.20;99.90
1948;DHT22;974;52.400;9.818;2022-11-20T09:18:20;1.30;99.90
1948;DHT22;974;52.400;9.818;2022-11-20T09:20:46;1.40;99.90
1948;DHT22;974;52.400;9.818;2022-11-20T09:23:12;1.30;99.90
1948;DHT22;974;52.400;9.818;2022-11-20T09:25:37;1.40;99.90
1948;DHT22;974;52.400;9.818;2022-11-20T09:28:03;1.40;99.90
1948;DHT22;974;52.400;9.818;2022-11-20T09:30:29;1.40;99.90
1948;DHT22;974;52.400;9.818;2022-11-20T09:32:54;1.50;99.90
1948;DHT22;974;52.400;9.818;2022-11-20T09:35:20;1.60;99.90
1948;DHT22;974;52.400;9.818;2022-11-20T09:37:45;1.60;99.90
1948;DHT22;974;52.400;9.818;2022-11-20T09:40:24;1.70;99.90
1948;DHT22;974;52.400;9.818;2022-11-20T09:42:58;1.80;99.90
1948;DHT22;974;52.400;9.818;2022-11-20T09:45:47;1.90;99.90
1948;DHT22;974;52.400;9.818;2022-11-20T09:51:13;1.80;99.90
1948;DHT22;974;52.400;9.818;2022-11-20T09:56:17;2.00;99.90
1948;DHT22;974;52.400;9.818;2022-11-20T09:58:47;2.10;99.90
1948;DHT22;974;52.400;9.818;2022-11-20T10:01:15;2.20;99.90
1948;DHT22;974;52.400;9.818;2022-11-20T10:04:03;2.30;99.90
1948;DHT22;974;52.400;9.818;2022-11-20T10:06:32;2.30;99.90
1948;DHT22;974;52.400;9.818;2022-11-20T10:26:01;2.40;99.90
1948;DHT22;974;52.400;9.818;2022-11-20T10:28:50;2.50;99.90
1948;DHT22;974;52.400;9.818;2022-11-20T10:31:34;2.60;99.90
1948;DHT22;974;52.400;9.818;2022-11-20T10:34:20;2.30;99.90
1948;DHT22;974;52.400;9.818;2022-11-20T10:36:52;2.50;99.90
1948;DHT22;974;52.400;9.818;2022-11-20T10:41:51;2.50;99.90
1948;DHT22;974;52.400;9.818;2022-11-20T10:44:22;2.60;99.90
1948;DHT22;974;52.400;9.818;2022-11-20T10:47:15;2.30;99.90
1948;DHT22;974;52.400;9.818;2022-11-20T10:49:43;2.60;99.90
1948;DHT22;974;52.400;9.818;2022-11-20T11:00:45;2.80;99.90
1948;DHT22;974;52.400;9.818;2022-11-20T11:03:29;2.90;99.90
1948;DHT22;974;52.400;9.818;2022-11-20T11:06:58;2.90;99.90
1948;DHT22;974;52.400;9.818;2022-11-20T11:08:59;2.30;99.90
1948;DHT22;974;52.400;9.818;2022-11-20T11:11:29;2.60;99.90
1948;DHT22;974;52.400;9.818;2022-11-20T11:16:34;2.50;99.90
1948;DHT22;974;52.400;9.818;2022-11-20T11:19:11;2.60;99.90
1948;DHT22;974;52.400;9.818;2022-11-20T11:21:37;2.60;99.90
1948;DHT22;974;52.400;9.818;2022-11-20T11:24:24;2.50;99.90
1948;DHT22;974;52.400;9.818;2022-11-20T11:26:53;2.50;99.90
1948;DHT22;974;52.400;9.818;2022-11-20T11:29:20;2.40;99.90
1948;DHT22;974;52.400;9.818;2022-11-20T11:31:45;2.40;99.90
1948;DHT22;974;52.400;9.818;2022-11-20T11:34:16;2.40;99.90
1948;DHT22;974;52.400;9.818;2022-11-20T11:36:55;2.50;99.90
1948;DHT22;974;52.400;9.818;2022-11-20T11:39:21;2.40;99.90
1948;DHT22;974;52.400;9.818;2022-11-20T11:41:48;2.50;99.90
1948;DHT22;974;52.400;9.818;2022-11-20T11:44:27;2.30;99.90
1948;DHT22;974;52.400;9.818;2022-11-20T11:47:24;2.30;99.90
1948;DHT22;974;52.400;9.818;2022-11-20T11:58:17;2.10;99.90
1948;DHT22;974;52.400;9.818;2022-11-20T12:03:39;2.20;99.90
1948;DHT22;974;52.400;9.818;2022-11-20T12:06:13;2.20;99.90
1948;DHT22;974;52.400;9.818;2022-11-20T12:08:46;2.30;99.90
1948;DHT22;974;52.400;9.818;2022-11-20T12:11:24;2.30;99.90
1948;DHT22;974;52.400;9.818;2022-11-20T12:16:23;2.30;99.90
1948;DHT22;974;52.400;9.818;2022-11-20T12:18:51;2.50;99.90
1948;DHT22;974;52.400;9.818;2022-11-20T12:26:48;2.30;99.90
1948;DHT22;974;52.400;9.818;2022-11-20T12:40:45;2.40;99.90
1948;DHT22;974;52.400;9.818;2022-11-20T12:43:21;2.20;99.90
1948;DHT22;974;52.400;9.818;2022-11-20T12:46:18;2.40;99.90
1948;DHT22;974;52.400;9.818;2022-11-20T13:04:39;2.40;99.90
1948;DHT22;974;52.400;9.818;2022-11-20T13:07:11;2.30;99.90
1948;DHT22;974;52.400;9.818;2022-11-20T13:09:42;2.30;99.90
1948;DHT22;974;52.400;9.818;2022-11-20T13:12:31;2.40;99.90
1948;DHT22;974;52.400;9.818;2022-11-20T13:20:18;2.40;99.90
1948;DHT22;974;52.400;9.818;2022-11-20T13:22:48;2.40;99.90
1948;DHT22;974;52.400;9.818;2022-11-20T13:27:53;2.60;99.90
1948;DHT22;974;52.400;9.818;2022-11-20T13:30:21;2.70;99.90
1948;DHT22;974;52.400;9.818;2022-11-20T13:33:00;2.80;99.90
1948;DHT22;974;52.400;9.818;2022-11-20T13:35:35;2.70;99.90
1948;DHT22;974;52.400;9.818;2022-11-20T13:38:11;2.80;99.90
1948;DHT22;974;52.400;9.818;2022-11-20T13:40:39;2.80;99.90
1948;DHT22;974;52.400;9.818;2022-11-20T13:43:37;2.60;99.90
1948;DHT22;974;52.400;9.818;2022-11-20T13:46:06;2.60;99.90
1948;DHT22;974;52.400;9.818;2022-11-20T13:48:43;2.70;99.90
1948;DHT22;974;52.400;9.818;2022-11-20T13:51:48;2.80;99.90
1948;DHT22;974;52.400;9.818;2022-11-20T14:00:16;2.80;99.90
1948;DHT22;974;52.400;9.818;2022-11-20T14:02:41;2.70;99.90
1948;DHT22;974;52.400;9.818;2022-11-20T14:05:20;2.50;99.90
1948;DHT22;974;52.400;9.818;2022-11-20T14:07:47;2.50;99.90
1948;DHT22;974;52.400;9.818;2022-11-20T14:10:25;2.50;99.90
1948;DHT22;974;52.400;9.818;2022-11-20T14:12:51;2.70;99.90
1948;DHT22;974;52.400;9.818;2022-11-20T14:15:34;2.60;99.90
1948;DHT22;974;52.400;9.818;2022-11-20T14:18:15;2.70;99.90
1948;DHT22;974;52.400;9.818;2022-11-20T14:20:44;2.70;99.90
1948;DHT22;974;52.400;9.818;2022-11-20T14:23:10;2.70;99.90
1948;DHT22;974;52.400;9.818;2022-11-20T14:25:36;2.70;99.90
1948;DHT22;974;52.400;9.818;2022-11-20T14:28:03;2.70;99.90
1948;DHT22;974;52.400;9.818;2022-11-20T14:30:43;2.60;99.90
1948;DHT22;974;52.400;9.818;2022-11-20T14:33:11;2.70;99.90
1948;DHT22;974;52.400;9.818;2022-11-20T14:35:47;2.70;99.90
1948;DHT22;974;52.400;9.818;2022-11-20T14:38:16;2.60;99.90
1948;DHT22;974;52.400;9.818;2022-11-20T14:40:42;2.60;99.90
1948;DHT22;974;52.400;9.818;2022-11-20T14:43:27;2.60;99.90
1948;DHT22;974;52.400;9.818;2022-11-20T14:45:58;2.60;99.90
1948;DHT22;974;52.400;9.818;2022-11-20T14:48:47;2.60;99.90
1948;DHT22;974;52.400;9.818;2022-11-20T14:51:39;2.50;99.90
1948;DHT22;974;52.400;9.818;2022-11-20T14:54:18;2.50;99.90
1948;DHT22;974;52.400;9.818;2022-11-20T14:56:58;2.50;99.90
1948;DHT22;974;52.400;9.818;2022-11-20T14:59:32;2.50;99.90
1948;DHT22;974;52.400;9.818;2022-11-20T15:02:00;2.30;99.90
1948;DHT22;974;52.400;9.818;2022-11-20T15:04:26;2.30;99.90
1948;DHT22;974;52.400;9.818;2022-11-20T15:06:54;2.30;99.90
1948;DHT22;974;52.400;9.818;2022-11-20T15:09:20;2.30;99.90
1948;DHT22;974;52.400;9.818;2022-11-20T15:11:55;2.30;99.90
1948;DHT22;974;52.400;9.818;2022-11-20T15:14:22;2.20;99.90
1948;DHT22;974;52.400;9.818;2022-11-20T15:16:49;2.20;99.90
1948;DHT22;974;52.400;9.818;2022-11-20T15:19:20;2.10;99.90
1948;DHT22;974;52.400;9.818;2022-11-20T15:21:46;2.00;99.90
1948;DHT22;974;52.400;9.818;2022-11-20T15:24:15;2.00;99.90
1948;DHT22;974;52.400;9.818;2022-11-20T15:26:41;1.90;99.90
1948;DHT22;974;52.400;9.818;2022-11-20T15:29:12;2.00;99.90
1948;DHT22;974;52.400;9.818;2022-11-20T15:31:38;2.00;99.90
1948;DHT22;974;52.400;9.818;2022-11-20T15:34:12;2.00;99.90
1948;DHT22;974;52.400;9.818;2022-11-20T15:36:39;2.00;99.90
1948;DHT22;974;52.400;9.818;2022-11-20T15:39:05;2.00;99.90
1948;DHT22;974;52.400;9.818;2022-11-20T15:41:33;2.10;99.90
1948;DHT22;974;52.400;9.818;2022-11-20T15:43:59;2.10;99.90
1948;DHT22;974;52.400;9.818;2022-11-20T15:46:27;2.10;99.90
1948;DHT22;974;52.400;9.818;2022-11-20T15:48:55;2.10;99.90
1948;DHT22;974;52.400;9.818;2022-11-20T15:51:27;2.00;99.90
1948;DHT22;974;52.400;9.818;2022-11-20T15:53:55;1.90;99.90
1948;DHT22;974;52.400;9.818;2022-11-20T15:56:21;1.90;99.90
1948;DHT22;974;52.400;9.818;2022-11-20T15:58:46;1.80;99.90
1948;DHT22;974;52.400;9.818;2022-11-20T16:01:14;1.80;99.90
1948;DHT22;974;52.400;9.818;2022-11-20T16:03:40;1.60;99.90
1948;DHT22;974;52.400;9.818;2022-11-20T16:06:06;1.60;99.90
1948;DHT22;974;52.400;9.818;2022-11-20T16:08:32;1.60;99.90
1948;DHT22;974;52.400;9.818;2022-11-20T16:10:57;1.40;99.90
1948;DHT22;974;52.400;9.818;2022-11-20T16:13:23;1.40;99.90
1948;DHT22;974;52.400;9.818;2022-11-20T16:16:22;1.40;99.90
1948;DHT22;974;52.400;9.818;2022-11-20T16:18:49;1.30;99.90
1948;DHT22;974;52.400;9.818;2022-11-20T16:21:15;1.20;99.90
1948;DHT22;974;52.400;9.818;2022-11-20T16:23:41;1.10;99.90
1948;DHT22;974;52.400;9.818;2022-11-20T16:26:17;1.10;99.90
1948;DHT22;974;52.400;9.818;2022-11-20T16:28:44;1.10;99.90
1948;DHT22;974;52.400;9.818;2022-11-20T16:31:15;1.10;99.90
1948;DHT22;974;52.400;9.818;2022-11-20T16:33:41;1.10;99.90
1948;DHT22;974;52.400;9.818;2022-11-20T16:36:11;1.00;99.90
1948;DHT22;974;52.400;9.818;2022-11-20T16:38:38;1.00;99.90
1948;DHT22;974;52.400;9.818;2022-11-20T16:41:04;0.90;99.90
1948;DHT22;974;52.400;9.818;2022-11-20T16:43:30;0.90;99.90
1948;DHT22;974;52.400;9.818;2022-11-20T16:45:55;0.90;99.90
1948;DHT22;974;52.400;9.818;2022-11-20T16:48:21;0.80;99.90
1948;DHT22;974;52.400;9.818;2022-11-20T16:50:52;1.10;99.90
1948;DHT22;974;52.400;9.818;2022-11-20T16:53:19;0.90;99.90
1948;DHT22;974;52.400;9.818;2022-11-20T16:55:45;0.90;99.90
1948;DHT22;974;52.400;9.818;2022-11-20T16:58:11;0.80;99.90
1948;DHT22;974;52.400;9.818;2022-11-20T17:00:40;0.70;99.90
1948;DHT22;974;52.400;9.818;2022-11-20T17:03:07;0.70;99.90
1948;DHT22;974;52.400;9.818;2022-11-20T17:05:34;0.80;99.90
1948;DHT22;974;52.400;9.818;2022-11-20T17:08:00;0.90;99.90
1948;DHT22;974;52.400;9.818;2022-11-20T17:10:26;0.90;99.90
1948;DHT22;974;52.400;9.818;2022-11-20T17:12:51;0.80;99.90
1948;DHT22;974;52.400;9.818;2022-11-20T17:15:17;0.80;99.90
1948;DHT22;974;52.400;9.818;2022-11-20T17:17:42;0.80;99.90
1948;DHT22;974;52.400;9.818;2022-11-20T17:20:09;0.80;99.90
1948;DHT22;974;52.400;9.818;2022-11-20T17:22:34;0.80;99.90
1948;DHT22;974;52.400;9.818;2022-11-20T17:25:00;0.80;99.90
1948;DHT22;974;52.400;9.818;2022-11-20T17:27:25;0.70;99.90
1948;DHT22;974;52.400;9.818;2022-11-20T17:29:51;0.60;99.90
1948;DHT22;974;52.400;9.818;2022-11-20T17:32:19;0.80;99.90
1948;DHT22;974;52.400;9.818;2022-11-20T17:34:44;0.80;99.90
1948;DHT22;974;52.400;9.818;2022-11-20T17:37:10;0.80;99.90
1948;DHT22;974;52.400;9.818;2022-11-20T17:39:36;0.70;99.90
1948;DHT22;974;52.400;9.818;2022-11-20T17:42:01;0.70;99.90
1948;DHT22;974;52.400;9.818;2022-11-20T17:44:45;0.70;99.90
1948;DHT22;974;52.400;9.818;2022-11-20T17:47:11;0.70;99.90
1948;DHT22;974;52.400;9.818;2022-11-20T17:49:37;0.70;99.90
1948;DHT22;974;52.400;9.818;2022-11-20T17:52:03;0.70;99.90
1948;DHT22;974;52.400;9.818;2022-11-20T17:54:29;0.70;99.90
1948;DHT22;974;52.400;9.818;2022-11-20T17:56:54;0.70;99.90
1948;DHT22;974;52.400;9.818;2022-11-20T17:59:38;0.70;99.90
1948;DHT22;974;52.400;9.818;2022-11-20T18:02:04;0.70;99.90
1948;DHT22;974;52.400;9.818;2022-11-20T18:04:30;0.60;99.90
1948;DHT22;974;52.400;9.818;2022-11-20T18:06:55;0.70;99.90
1948;DHT22;974;52.400;9.818;2022-11-20T18:09:21;0.60;99.90
1948;DHT22;974;52.400;9.818;2022-11-20T18:11:46;0.60;99.90
1948;DHT22;974;52.400;9.818;2022-11-20T18:14:14;0.60;99.90
1948;DHT22;974;52.400;9.818;2022-11-20T18:17:06;0.60;99.90
1948;DHT22;974;52.400;9.818;2022-11-20T18:19:37;0.60;99.90
1948;DHT22;974;52.400;9.818;2022-11-20T18:22:03;0.80;99.90
1948;DHT22;974;52.400;9.818;2022-11-20T18:24:30;0.70;99.90
1948;DHT22;974;52.400;9.818;2022-11-20T18:26:57;0.60;99.90